.
WxDataArchive / Data Records for 2006-03-04
2006-03-03 March 2006 2006-03-05

Data Records for Saturday, 04 March 2006

Time	Temp	Chill	HIndex	Humid	Dewpt	 Wind 	HiWind	WindDir	Rain 	Barom 
-----	----	-----	------	-----	-----	------	------	-------	-----	----- 
00:00	27.9	27.9	27.9	62	16.6	0	1	292	0.00	30.367 
00:05	27.9	27.9	27.9	63	17.0	0	2	315	0.00	30.367 
00:10	27.8	27.8	27.8	62	16.5	1	5	338	0.00	30.367 
00:15	27.8	27.8	27.8	62	16.5	0	2	315	0.00	30.369 
00:20	27.8	27.8	27.8	62	16.5	0	1	338	0.00	30.369 
00:25	27.8	27.8	27.8	62	16.5	1	3	0	0.00	30.369 
00:30	27.8	27.8	27.8	62	16.5	0	2	0	0.00	30.374 
00:35	27.8	27.8	27.8	63	16.9	0	1	0	0.00	30.374 
00:40	27.8	27.8	27.8	63	16.9	0	2	0	0.00	30.374 
00:45	27.6	27.6	27.6	63	16.7	0	2	0	0.00	30.378 
00:50	27.6	27.6	27.6	64	17.0	0	2	292	0.00	30.378 
00:55	27.6	27.6	27.6	63	16.7	0	2	292	0.00	30.378 
01:00	27.6	27.6	27.6	63	16.7	0	2	315	0.00	30.374 
01:05	27.6	27.6	27.6	63	16.7	0	1	315	0.00	30.374 
01:10	27.6	27.6	27.6	62	16.3	1	5	338	0.00	30.374 
01:15	27.6	27.6	27.6	62	16.3	1	4	270	0.00	30.378 
01:20	27.5	27.5	27.5	62	16.2	0	2	292	0.00	30.378 
01:25	27.5	27.5	27.5	62	16.2	0	2	292	0.00	30.378 
01:30	27.5	27.5	27.5	62	16.2	0	1	292	0.00	30.381 
01:35	27.5	27.5	27.5	62	16.2	0	2	292	0.00	30.381 
01:40	27.5	27.5	27.5	62	16.2	1	4	315	0.00	30.381 
01:45	27.5	27.5	27.5	63	16.6	0	2	270	0.00	30.382 
01:50	27.5	27.5	27.5	62	16.2	0	2	270	0.00	30.382 
01:55	27.5	27.5	27.5	63	16.6	0	2	270	0.00	30.382 
02:00	27.5	27.5	27.5	63	16.6	0	1	270	0.00	30.383 
02:05	27.5	27.5	27.5	63	16.6	0	1	270	0.00	30.383 
02:10	27.5	27.5	27.5	63	16.6	1	3	270	0.00	30.383 
02:15	27.5	27.5	27.5	63	16.6	0	2	338	0.00	30.384 
02:20	27.5	27.5	27.5	63	16.6	0	2	338	0.00	30.384 
02:25	27.5	27.5	27.5	63	16.6	0	1	338	0.00	30.384 
02:30	27.5	27.5	27.5	63	16.6	0	2	338	0.00	30.384 
02:35	27.5	27.5	27.5	63	16.6	0	2	338	0.00	30.384 
02:40	27.5	27.5	27.5	64	16.9	1	3	292	0.00	30.384 
02:45	27.5	27.5	27.5	63	16.6	0	1	292	0.00	30.381 
02:50	27.5	27.5	27.5	64	16.9	0	1	292	0.00	30.381 
02:55	27.3	27.3	27.3	63	16.4	0	2	292	0.00	30.381 
03:00	27.3	27.3	27.3	63	16.4	0	1	315	0.00	30.380 
03:05	27.3	27.3	27.3	63	16.4	1	4	270	0.00	30.380 
03:10	27.2	27.2	27.2	63	16.3	0	2	270	0.00	30.380 
03:15	27.2	27.2	27.2	63	16.3	0	4	270	0.00	30.377 
03:20	27.2	27.2	27.2	63	16.3	0	2	292	0.00	30.377 
03:25	27.2	27.2	27.2	63	16.3	0	3	270	0.00	30.377 
03:30	27.0	27.0	27.0	63	16.1	0	1	270	0.00	30.377 
03:35	27.0	27.0	27.0	63	16.1	0	2	270	0.00	30.377 
03:40	27.0	27.0	27.0	63	16.1	0	2	338	0.00	30.377 
03:45	27.0	27.0	27.0	63	16.1	0	2	338	0.00	30.372 
03:50	27.0	27.0	27.0	63	16.1	0	3	338	0.00	30.372 
03:55	27.0	27.0	27.0	63	16.1	1	3	338	0.00	30.372 
04:00	26.9	26.9	26.9	62	15.6	1	3	315	0.00	30.379 
04:05	26.7	26.7	26.7	62	15.5	0	1	315	0.00	30.379 
04:10	26.6	26.6	26.6	62	15.4	0	2	338	0.00	30.379 
04:15	26.4	26.4	26.4	62	15.2	0	1	338	0.00	30.379 
04:20	26.3	26.3	26.3	62	15.1	0	1	338	0.00	30.379 
04:25	26.3	26.3	26.3	62	15.1	0	3	0	0.00	30.379 
04:30	26.3	26.3	26.3	63	15.4	0	2	315	0.00	30.382 
04:35	26.1	26.1	26.1	63	15.3	0	1	315	0.00	30.382 
04:40	26.1	26.1	26.1	64	15.6	0	2	315	0.00	30.382 
04:45	26.1	26.1	26.1	64	15.6	0	2	315	0.00	30.382 
04:50	26.1	26.1	26.1	64	15.6	0	2	0	0.00	30.382 
04:55	26.1	26.1	26.1	64	15.6	0	1	0	0.00	30.382 
05:00	26.0	26.0	26.0	64	15.5	0	2	0	0.00	30.382 
05:05	26.0	26.0	26.0	64	15.5	1	3	248	0.00	30.382 
05:10	26.0	26.0	26.0	64	15.5	0	1	338	0.00	30.382 
05:15	25.8	25.8	25.8	65	15.7	0	1	338	0.00	30.385 
05:20	25.8	25.8	25.8	65	15.7	0	1	338	0.00	30.385 
05:25	25.8	25.8	25.8	65	15.7	0	1	338	0.00	30.385 
05:30	25.7	25.7	25.7	65	15.6	0	1	338	0.00	30.388 
05:35	25.7	25.7	25.7	66	15.9	0	1	338	0.00	30.388 
05:40	25.7	25.7	25.7	66	15.9	0	0	---	0.00	30.388 
05:45	25.7	25.7	25.7	66	15.9	0	1	338	0.00	30.395 
05:50	25.7	25.7	25.7	66	15.9	0	2	338	0.00	30.395 
05:55	25.7	25.7	25.7	66	15.9	0	1	338	0.00	30.395 
06:00	25.7	25.7	25.7	66	15.9	0	1	338	0.00	30.399 
06:05	25.4	25.4	25.4	66	15.7	0	1	338	0.00	30.399 
06:10	25.3	25.3	25.3	66	15.6	0	1	338	0.00	30.399 
06:15	25.1	25.1	25.1	66	15.4	0	2	315	0.00	30.403 
06:20	25.0	25.0	25.0	66	15.3	0	1	315	0.00	30.403 
06:25	24.7	24.7	24.7	67	15.3	0	2	315	0.00	30.403 
06:30	24.4	24.4	24.4	67	15.0	0	1	315	0.00	30.411 
06:35	24.1	24.1	24.1	68	15.1	0	1	315	0.00	30.411 
06:40	23.9	23.9	23.9	68	14.9	0	1	315	0.00	30.411 
06:45	23.6	23.6	23.6	69	14.9	0	1	315	0.00	30.408 
06:50	23.3	23.3	23.3	69	14.7	0	1	315	0.00	30.408 
06:55	23.2	23.2	23.2	69	14.6	0	1	315	0.00	30.408 
07:00	23.0	23.0	23.0	70	14.7	0	1	315	0.00	30.412 
07:05	22.7	22.7	22.7	70	14.4	0	0	---	0.00	30.412 
07:10	22.5	22.5	22.5	71	14.5	0	1	315	0.00	30.412 
07:15	22.4	22.4	22.4	71	14.4	0	0	---	0.00	30.415 
07:20	22.2	22.2	22.2	72	14.6	0	1	315	0.00	30.415 
07:25	22.1	22.1	22.1	72	14.5	0	0	---	0.00	30.415 
07:30	21.9	21.9	21.9	73	14.6	0	1	315	0.00	30.419 
07:35	21.9	21.9	21.9	73	14.6	0	0	---	0.00	30.419 
07:40	22.1	22.1	22.1	72	14.5	0	1	315	0.00	30.419 
07:45	22.4	22.4	22.4	72	14.8	0	0	---	0.00	30.419 
07:50	22.7	22.7	22.7	72	15.1	0	1	315	0.00	30.419 
07:55	23.0	23.0	23.0	71	15.0	0	1	315	0.00	30.419 
08:00	23.3	23.3	23.3	70	15.0	0	1	315	0.00	30.421 
08:05	23.6	23.6	23.6	69	14.9	1	4	292	0.00	30.421 
08:10	23.9	23.9	23.9	69	15.2	1	2	292	0.00	30.421 
08:15	24.1	24.1	24.1	68	15.1	1	2	338	0.00	30.426 
08:20	24.4	24.4	24.4	68	15.4	0	2	270	0.00	30.426 
08:25	24.5	24.5	24.5	67	15.1	1	4	292	0.00	30.426 
08:30	24.5	24.5	24.5	66	14.8	1	3	338	0.00	30.428 
08:35	24.7	24.7	24.7	65	14.6	1	4	292	0.00	30.428 
08:40	24.8	24.8	24.8	65	14.7	1	3	0	0.00	30.428 
08:45	25.1	25.1	25.1	65	15.0	1	3	22	0.00	30.430 
08:50	25.4	25.4	25.4	64	14.9	1	3	0	0.00	30.430 
08:55	25.6	25.6	25.6	63	14.8	1	3	0	0.00	30.430 
09:00	26.0	26.0	26.0	62	14.8	1	3	270	0.00	30.428 
09:05	26.1	26.1	26.1	61	14.5	1	3	338	0.00	30.428 
09:10	26.6	26.6	26.6	60	14.6	1	3	338	0.00	30.428 
09:15	26.9	26.9	26.9	60	14.9	1	4	22	0.00	30.432 
09:20	27.0	27.0	27.0	58	14.2	2	4	270	0.00	30.432 
09:25	27.3	27.3	27.3	59	14.9	2	4	315	0.00	30.432 
09:30	27.5	27.5	27.5	58	14.7	1	4	292	0.00	30.433 
09:35	27.8	27.8	27.8	58	15.0	1	3	0	0.00	30.433 
09:40	28.1	28.1	28.1	58	15.3	1	3	338	0.00	30.433 
09:45	28.4	28.4	28.4	57	15.1	1	4	338	0.00	30.433 
09:50	28.7	28.7	28.7	57	15.4	1	4	0	0.00	30.433 
09:55	29.0	29.0	29.0	57	15.7	1	3	315	0.00	30.433 
10:00	29.4	29.4	29.4	54	14.8	1	5	338	0.00	30.430 
10:05	29.5	29.5	29.5	54	14.9	1	3	248	0.00	30.430 
10:10	29.5	29.5	29.5	54	14.9	1	3	270	0.00	30.430 
10:15	29.5	29.5	29.5	54	14.9	1	3	338	0.00	30.429 
10:20	30.0	30.0	30.0	53	15.0	1	3	338	0.00	30.429 
10:25	30.3	30.3	30.3	51	14.4	1	3	270	0.00	30.429 
10:30	30.6	30.6	30.6	49	13.7	1	3	338	0.00	30.425 
10:35	31.0	31.0	31.0	52	15.5	1	3	338	0.00	30.425 
10:40	31.2	31.2	31.2	49	14.3	1	4	248	0.00	30.425 
10:45	31.2	31.2	31.2	49	14.3	1	4	0	0.00	30.427 
10:50	31.3	31.3	31.3	45	12.5	1	4	0	0.00	30.427 
10:55	31.3	31.3	31.3	46	12.9	2	5	315	0.00	30.427 
11:00	31.3	31.3	31.3	46	12.9	1	4	270	0.00	30.428 
11:05	31.5	31.5	31.5	44	12.1	1	3	0	0.00	30.428 
11:10	31.5	31.5	31.5	45	12.6	2	4	338	0.00	30.428 
11:15	32.1	32.1	32.1	46	13.7	1	3	292	0.00	30.425 
11:20	32.5	32.5	32.5	43	12.5	1	3	292	0.00	30.425 
11:25	32.4	32.4	32.4	43	12.4	2	4	338	0.00	30.425 
11:30	32.5	32.5	32.5	46	14.0	2	6	248	0.00	30.424 
11:35	32.8	32.8	32.8	44	13.3	2	4	338	0.00	30.424 
11:40	33.2	33.2	33.2	43	13.2	1	3	292	0.00	30.424 
11:45	33.4	33.4	33.4	44	13.9	2	6	248	0.00	30.422 
11:50	33.8	33.8	33.8	41	12.6	1	3	338	0.00	30.422 
11:55	34.1	34.1	34.1	41	12.9	1	3	270	0.00	30.422 
12:00	34.4	34.4	34.4	40	12.6	1	3	315	0.00	30.416 
12:05	34.3	34.3	34.3	40	12.5	1	3	0	0.00	30.416 
12:10	34.7	34.7	34.7	39	12.3	1	4	338	0.00	30.416 
12:15	35.5	35.5	35.5	38	12.4	1	4	45	0.00	30.420 
12:20	35.3	35.3	35.3	39	12.8	1	5	292	0.00	30.420 
12:25	35.3	35.3	35.3	39	12.8	1	4	248	0.00	30.420 
12:30	35.6	35.6	35.6	40	13.7	1	3	315	0.00	30.415 
12:35	35.9	35.9	35.9	37	12.2	1	4	22	0.00	30.415 
12:40	36.0	36.0	36.0	37	12.3	1	4	338	0.00	30.415 
12:45	36.0	36.0	36.0	38	12.9	2	5	45	0.00	30.414 
12:50	36.2	36.2	36.2	35	11.2	2	5	22	0.00	30.414 
12:55	36.8	36.8	36.8	39	14.2	1	5	248	0.00	30.414 
13:00	36.9	36.9	36.9	38	13.7	2	5	338	0.00	30.410 
13:05	37.3	37.3	37.3	40	15.2	1	3	315	0.00	30.410 
13:10	37.8	37.8	37.8	37	13.9	2	5	315	0.00	30.410 
13:15	38.0	38.0	38.0	38	14.7	2	5	112	0.00	30.405 
13:20	38.2	38.2	38.2	39	15.4	2	4	270	0.00	30.405 
13:25	38.0	38.0	38.0	37	14.1	1	4	248	0.00	30.405 
13:30	38.0	38.0	38.0	38	14.7	2	5	338	0.00	30.404 
13:35	38.0	38.0	38.0	37	14.1	1	4	0	0.00	30.404 
13:40	38.3	38.3	38.3	36	13.7	1	4	292	0.00	30.404 
13:45	38.5	38.5	38.5	37	14.5	3	5	248	0.00	30.400 
13:50	39.1	39.1	39.1	38	15.7	2	5	315	0.00	30.400 
13:55	38.9	38.9	38.9	39	16.1	1	3	338	0.00	30.400 
14:00	39.1	39.1	39.1	37	15.1	1	3	338	0.00	30.395 
14:05	39.2	39.2	39.2	35	13.9	2	4	270	0.00	30.395 
14:10	39.2	39.2	39.2	35	13.9	2	5	0	0.00	30.395 
14:15	39.9	39.9	39.9	39	17.0	1	3	270	0.00	30.391 
14:20	39.9	39.9	39.9	35	14.5	2	5	270	0.00	30.391 
14:25	39.5	39.5	39.5	36	14.8	1	3	0	0.00	30.391 
14:30	39.9	39.9	39.9	36	15.1	2	4	315	0.00	30.390 
14:35	40.1	40.1	40.1	35	14.7	2	7	270	0.00	30.390 
14:40	39.9	39.9	39.9	36	15.1	2	4	338	0.00	30.390 
14:45	40.1	40.1	40.1	36	15.3	1	4	0	0.00	30.386 
14:50	40.2	40.2	40.2	36	15.4	2	6	292	0.00	30.386 
14:55	40.3	40.3	40.3	35	14.8	1	4	270	0.00	30.386 
15:00	40.8	40.8	40.8	35	15.3	2	4	338	0.00	30.380 
15:05	41.1	41.1	41.1	34	14.9	1	4	0	0.00	30.380 
15:10	41.2	41.2	41.2	34	15.0	1	4	0	0.00	30.380 
15:15	41.2	41.2	41.2	35	15.6	2	4	292	0.00	30.378 
15:20	40.9	40.9	40.9	34	14.7	2	7	292	0.00	30.378 
15:25	40.8	40.8	40.8	35	15.3	2	7	338	0.00	30.378 
15:30	40.8	40.8	40.8	36	15.9	1	3	315	0.00	30.376 
15:35	41.1	41.1	41.1	35	15.6	1	4	0	0.00	30.376 
15:40	40.9	40.9	40.9	34	14.7	2	5	270	0.00	30.376 
15:45	40.8	40.8	40.8	35	15.3	1	4	338	0.00	30.376 
15:50	40.8	40.8	40.8	35	15.3	2	5	0	0.00	30.376 
15:55	40.8	40.8	40.8	36	15.9	2	5	338	0.00	30.376 
16:00	40.6	40.6	40.6	36	15.8	2	7	338	0.00	30.377 
16:05	40.5	40.5	40.5	36	15.7	2	4	338	0.00	30.377 
16:10	40.3	40.3	40.3	36	15.5	1	4	0	0.00	30.377 
16:15	40.5	40.5	40.5	37	16.3	2	6	292	0.00	30.376 
16:20	40.6	40.6	40.6	37	16.4	2	4	270	0.00	30.376 
16:25	40.8	40.8	40.8	35	15.3	2	5	315	0.00	30.376 
16:30	40.3	40.3	40.3	35	14.8	2	6	338	0.00	30.375 
16:35	40.3	40.3	40.3	37	16.1	2	4	292	0.00	30.375 
16:40	40.3	40.3	40.3	35	14.8	2	6	292	0.00	30.375 
16:45	40.2	40.2	40.2	37	16.0	1	3	270	0.00	30.371 
16:50	40.2	40.2	40.2	36	15.4	2	5	270	0.00	30.371 
16:55	40.1	40.1	40.1	37	15.9	1	3	0	0.00	30.371 
17:00	39.6	39.6	39.6	37	15.5	1	3	22	0.00	30.363 
17:05	39.6	39.6	39.6	39	16.7	2	4	270	0.00	30.363 
17:10	39.6	39.6	39.6	39	16.7	1	4	315	0.00	30.363 
17:15	39.6	39.6	39.6	39	16.7	1	5	315	0.00	30.362 
17:20	39.5	39.5	39.5	39	16.6	1	4	270	0.00	30.362 
17:25	39.5	39.5	39.5	39	16.6	1	3	338	0.00	30.362 
17:30	39.2	39.2	39.2	39	16.3	1	3	270	0.00	30.359 
17:35	39.1	39.1	39.1	40	16.8	0	2	315	0.00	30.359 
17:40	38.9	38.9	38.9	40	16.7	0	3	22	0.00	30.359 
17:45	38.6	38.6	38.6	40	16.4	0	2	22	0.00	30.356 
17:50	38.5	38.5	38.5	41	16.9	0	2	22	0.00	30.356 
17:55	38.3	38.3	38.3	41	16.7	1	4	338	0.00	30.356 
18:00	38.2	38.2	38.2	41	16.6	1	3	338	0.00	30.356 
18:05	38.0	38.0	38.0	41	16.4	0	3	315	0.00	30.356 
18:10	37.8	37.8	37.8	42	16.8	0	1	0	0.00	30.356 
18:15	37.6	37.6	37.6	42	16.6	0	2	0	0.00	30.362 
18:20	37.3	37.3	37.3	42	16.3	0	2	0	0.00	30.362 
18:25	37.0	37.0	37.0	43	16.6	0	2	0	0.00	30.362 
18:30	36.8	36.8	36.8	43	16.4	0	1	0	0.00	30.364 
18:35	36.5	36.5	36.5	43	16.2	0	0	---	0.00	30.364 
18:40	36.2	36.2	36.2	44	16.4	0	0	---	0.00	30.364 
18:45	35.8	35.8	35.8	44	16.0	0	0	---	0.00	30.366 
18:50	35.3	35.3	35.3	45	16.1	0	0	---	0.00	30.366 
18:55	34.9	34.9	34.9	46	16.2	0	0	---	0.00	30.366 
19:00	34.3	34.3	34.3	46	15.7	0	0	---	0.00	30.374 
19:05	33.8	33.8	33.8	48	16.2	0	0	---	0.00	30.374 
19:10	33.5	33.5	33.5	48	15.9	0	0	---	0.00	30.374 
19:15	32.9	32.9	32.9	49	15.9	0	0	---	0.00	30.379 
19:20	32.4	32.4	32.4	50	15.9	0	0	---	0.00	30.379 
19:25	31.8	31.8	31.8	51	15.8	0	0	---	0.00	30.379 
19:30	31.6	31.6	31.6	52	16.0	0	0	---	0.00	30.386 
19:35	31.3	31.3	31.3	53	16.2	0	0	---	0.00	30.386 
19:40	31.0	31.0	31.0	54	16.3	0	0	---	0.00	30.386 
19:45	30.7	30.7	30.7	55	16.5	0	0	---	0.00	30.387 
19:50	30.4	30.4	30.4	55	16.2	0	0	---	0.00	30.387 
19:55	30.0	30.0	30.0	57	16.6	0	0	---	0.00	30.387 
20:00	29.5	29.5	29.5	58	16.6	0	0	---	0.00	30.392 
20:05	29.4	29.4	29.4	58	16.5	0	0	---	0.00	30.392 
20:10	29.3	29.3	29.3	59	16.8	0	0	---	0.00	30.392 
20:15	29.1	29.1	29.1	59	16.6	0	0	---	0.00	30.392 
20:20	29.0	29.0	29.0	60	16.9	0	0	---	0.00	30.392 
20:25	28.8	28.8	28.8	61	17.1	0	0	---	0.00	30.392 
20:30	28.8	28.8	28.8	60	16.7	0	0	---	0.00	30.395 
20:35	28.7	28.7	28.7	60	16.6	0	0	---	0.00	30.395 
20:40	28.7	28.7	28.7	61	17.0	0	0	---	0.00	30.395 
20:45	28.5	28.5	28.5	62	17.2	0	1	0	0.00	30.398 
20:50	28.8	28.8	28.8	62	17.4	0	1	0	0.00	30.398 
20:55	29.3	29.3	29.3	64	18.7	0	0	---	0.00	30.398 
21:00	29.5	29.5	29.5	64	18.8	0	0	---	0.00	30.400 
21:05	29.5	29.5	29.5	65	19.2	0	0	---	0.00	30.400 
21:10	29.5	29.5	29.5	65	19.2	0	1	0	0.00	30.400 
21:15	29.5	29.5	29.5	65	19.2	0	1	0	0.00	30.398 
21:20	29.4	29.4	29.4	66	19.5	0	0	---	0.00	30.398 
21:25	29.1	29.1	29.1	66	19.2	0	0	---	0.00	30.398 
21:30	29.0	29.0	29.0	67	19.4	0	0	---	0.00	30.402 
21:35	28.8	28.8	28.8	68	19.6	0	1	0	0.00	30.402 
21:40	28.7	28.7	28.7	68	19.5	0	0	---	0.00	30.402 
21:45	28.4	28.4	28.4	69	19.5	0	0	---	0.00	30.397 
21:50	28.2	28.2	28.2	69	19.4	0	0	---	0.00	30.397 
21:55	28.1	28.1	28.1	70	19.6	0	1	0	0.00	30.397 
22:00	27.9	27.9	27.9	70	19.4	0	0	---	0.00	30.397 
22:05	27.8	27.8	27.8	71	19.6	0	0	---	0.00	30.397 
22:10	27.6	27.6	27.6	71	19.4	0	0	---	0.00	30.397 
22:15	27.6	27.6	27.6	71	19.4	0	1	0	0.00	30.395 
22:20	27.6	27.6	27.6	71	19.4	0	1	0	0.00	30.395 
22:25	27.6	27.6	27.6	71	19.4	0	1	0	0.00	30.395 
22:30	27.6	27.6	27.6	71	19.4	0	0	---	0.00	30.392 
22:35	27.5	27.5	27.5	71	19.4	0	1	0	0.00	30.392 
22:40	27.3	27.3	27.3	72	19.5	0	1	0	0.00	30.392 
22:45	27.2	27.2	27.2	72	19.4	0	0	---	0.00	30.393 
22:50	26.9	26.9	26.9	72	19.1	0	0	---	0.00	30.393 
22:55	26.7	26.7	26.7	73	19.2	0	0	---	0.00	30.393 
23:00	26.6	26.6	26.6	73	19.1	0	0	---	0.00	30.388 
23:05	26.4	26.4	26.4	73	18.9	0	0	---	0.00	30.388 
23:10	26.3	26.3	26.3	74	19.2	0	0	---	0.00	30.388 
23:15	26.3	26.3	26.3	73	18.8	0	0	---	0.00	30.386 
23:20	26.0	26.0	26.0	74	18.9	0	0	---	0.00	30.386 
23:25	25.8	25.8	25.8	74	18.7	0	0	---	0.00	30.386 
23:30	25.8	25.8	25.8	75	19.0	0	0	---	0.00	30.383 
23:35	25.7	25.7	25.7	74	18.6	0	0	---	0.00	30.383 
23:40	25.6	25.6	25.6	74	18.5	0	0	---	0.00	30.383 
23:45	25.4	25.4	25.4	75	18.6	0	0	---	0.00	30.389 
23:50	25.1	25.1	25.1	75	18.3	0	0	---	0.00	30.389 
23:55	24.8	24.8	24.8	76	18.3	0	0	---	0.00	30.389 

CoCoRaHS
IN-AL-39
A2 Web Hosting
Creative Commons License
GoDaddy
Look for:

loaded 2017-12-13 19:49:34 • last modified 2010-11-18 10:43:29
Privacy PolicyDisclaimer
• wx.awcolley.com is powered by PmWiki v.2002016 •
• all content (unless otherwise noted) © 2017 A W Colley